createdAt,value
2022-09-06T00:00:41.655Z,16.39
2022-09-06T00:05:44.632Z,16.43
2022-09-06T00:10:47.612Z,16.45
2022-09-06T00:15:50.613Z,16.41
2022-09-06T00:20:53.410Z,16.46
2022-09-06T00:26:04.581Z,16.49
2022-09-06T00:31:23.135Z,16.53
2022-09-06T00:36:26.140Z,16.59
2022-09-06T00:41:29.480Z,16.65
2022-09-06T00:46:33.508Z,16.70
2022-09-06T00:51:37.107Z,16.80
2022-09-06T00:56:44.039Z,16.85
2022-09-06T01:01:47.169Z,16.92
2022-09-06T01:07:38.476Z,16.98
2022-09-06T01:13:37.405Z,17.00
2022-09-06T01:19:04.486Z,17.04
2022-09-06T01:25:00.921Z,17.07
2022-09-06T01:30:13.234Z,17.08
2022-09-06T01:35:38.550Z,17.05
2022-09-06T01:40:41.368Z,16.98
2022-09-06T01:46:17.855Z,17.00
2022-09-06T01:51:46.561Z,16.94
2022-09-06T01:57:50.451Z,16.90
2022-09-06T02:03:29.183Z,16.82
2022-09-06T02:08:44.379Z,16.73
2022-09-06T02:13:55.822Z,16.62
2022-09-06T02:19:34.587Z,16.52
2022-09-06T02:24:40.812Z,16.41
2022-09-06T02:29:43.642Z,16.32
2022-09-06T02:34:47.016Z,16.20
2022-09-06T02:39:49.859Z,16.04
2022-09-06T02:44:52.651Z,15.96
2022-09-06T02:49:55.457Z,15.86
2022-09-06T02:54:58.318Z,15.75
2022-09-06T03:00:02.077Z,15.64
2022-09-06T03:05:08.313Z,15.55
2022-09-06T03:10:11.359Z,15.46
2022-09-06T03:15:16.505Z,15.40
2022-09-06T03:20:19.647Z,15.32
2022-09-06T03:25:22.604Z,15.27
2022-09-06T03:30:25.424Z,15.29
2022-09-06T03:35:28.320Z,15.27
2022-09-06T03:40:31.392Z,15.35
2022-09-06T03:45:34.223Z,15.41
2022-09-06T03:50:37.047Z,15.46
2022-09-06T03:55:40.339Z,15.53
2022-09-06T04:00:43.638Z,15.57
2022-09-06T04:05:47.058Z,15.60
2022-09-06T04:10:57.693Z,15.65
2022-09-06T04:16:00.575Z,15.66
2022-09-06T04:21:03.919Z,15.69
2022-09-06T04:26:06.741Z,15.65
2022-09-06T04:31:09.593Z,15.65
2022-09-06T04:36:13.605Z,15.62
2022-09-06T04:41:18.951Z,15.62
2022-09-06T04:46:25.803Z,15.65
2022-09-06T04:51:28.612Z,15.68
2022-09-06T04:56:31.473Z,15.72
2022-09-06T05:01:34.877Z,15.75
2022-09-06T05:06:39.319Z,15.78
2022-09-06T05:11:42.305Z,15.83
2022-09-06T05:16:46.752Z,15.91
2022-09-06T05:21:52.210Z,16.03
2022-09-06T05:26:55.147Z,16.17
2022-09-06T05:31:58.171Z,16.25
2022-09-06T05:37:00.956Z,16.38
2022-09-06T05:42:07.075Z,16.49
2022-09-06T05:47:09.888Z,16.65
2022-09-06T05:52:12.685Z,16.78
2022-09-06T05:57:15.613Z,16.98
2022-09-06T06:02:18.749Z,17.12
2022-09-06T06:07:21.808Z,17.28
2022-09-06T06:12:24.603Z,17.46
2022-09-06T06:17:27.708Z,17.58
2022-09-06T06:22:30.548Z,17.72
2022-09-06T06:27:34.901Z,17.89
2022-09-06T06:32:37.658Z,18.01
2022-09-06T06:37:42.399Z,18.12
2022-09-06T06:42:45.636Z,18.26
2022-09-06T06:47:52.180Z,18.38
2022-09-06T06:52:55.008Z,18.50
2022-09-06T06:58:00.530Z,18.65
2022-09-06T07:03:04.824Z,18.80
2022-09-06T07:08:07.833Z,18.96
2022-09-06T07:13:10.726Z,19.14
2022-09-06T07:18:17.111Z,19.24
2022-09-06T07:28:43.246Z,19.57
2022-09-06T07:33:46.092Z,19.65
2022-09-06T07:38:50.600Z,19.83
2022-09-06T07:43:54.916Z,20.37
2022-09-06T07:48:58.107Z,21.43
2022-09-06T07:54:26.445Z,21.75
2022-09-06T07:59:24.211Z,21.66
2022-09-06T08:04:27.020Z,21.59
2022-09-06T08:09:29.786Z,21.65
2022-09-06T08:14:36.301Z,21.64
2022-09-06T08:19:39.172Z,21.64
2022-09-06T08:24:41.961Z,21.64
2022-09-06T08:29:44.926Z,21.73
2022-09-06T08:34:47.676Z,21.83
2022-09-06T08:39:50.822Z,21.91
2022-09-06T08:50:06.664Z,22.06
2022-09-06T08:55:41.955Z,22.21
2022-09-06T09:01:07.336Z,22.27
2022-09-06T09:06:11.533Z,22.29
2022-09-06T09:11:23.621Z,22.32
2022-09-06T09:16:27.003Z,22.50
2022-09-06T09:21:36.521Z,22.54
2022-09-06T09:27:13.876Z,22.57
2022-09-06T09:32:43.838Z,22.70
2022-09-06T09:37:48.810Z,22.75
2022-09-06T09:43:08.604Z,22.85
2022-09-06T09:48:28.194Z,22.88
2022-09-06T09:53:31.143Z,22.98
2022-09-06T09:58:36.967Z,23.20
2022-09-06T10:09:21.195Z,23.62
2022-09-06T10:14:45.373Z,23.59
2022-09-06T10:19:49.076Z,23.73
2022-09-06T10:25:06.879Z,24.07
2022-09-06T10:30:10.682Z,24.39
2022-09-06T10:35:40.893Z,24.60
2022-09-06T10:41:15.270Z,24.96
2022-09-06T10:46:25.320Z,25.22
2022-09-06T10:51:45.807Z,25.43
2022-09-06T11:09:11.817Z,26.62
2022-09-06T11:14:15.743Z,27.14
2022-09-06T11:19:31.879Z,27.54
2022-09-06T11:25:11.565Z,28.13
2022-09-06T11:30:17.548Z,28.48
2022-09-06T11:35:33.191Z,28.55
2022-09-06T11:40:47.165Z,28.85
2022-09-06T11:45:52.822Z,29.10
2022-09-06T11:51:02.964Z,29.43
2022-09-06T11:56:24.467Z,29.39
2022-09-06T12:01:27.233Z,29.42
2022-09-06T12:07:04.330Z,29.33
2022-09-06T12:12:08.369Z,28.95
2022-09-06T12:17:11.583Z,28.75
2022-09-06T12:22:29.895Z,28.47
2022-09-06T12:27:50.506Z,28.30
2022-09-06T12:32:53.509Z,28.34
2022-09-06T12:38:06.630Z,28.21
2022-09-06T12:43:13.616Z,28.15
2022-09-06T12:48:35.472Z,28.40
2022-09-06T12:53:38.454Z,28.50
2022-09-06T12:58:41.244Z,28.49
2022-09-06T13:04:32.520Z,28.38
2022-09-06T13:09:42.110Z,28.25
2022-09-06T13:14:44.840Z,28.27
2022-09-06T13:19:48.519Z,28.17
2022-09-06T13:24:56.728Z,27.78
2022-09-06T13:30:02.614Z,27.45
2022-09-06T13:35:05.781Z,27.23
2022-09-06T13:41:09.719Z,27.04
2022-09-06T13:46:10.894Z,26.88
2022-09-06T13:51:13.843Z,26.72
2022-09-06T13:56:17.177Z,26.58
2022-09-06T14:01:20.111Z,26.55
2022-09-06T14:06:23.353Z,26.53
2022-09-06T14:11:26.154Z,26.54
2022-09-06T14:16:30.320Z,26.54
2022-09-06T14:21:33.223Z,26.48
2022-09-06T14:26:38.754Z,26.41
2022-09-06T14:31:41.642Z,26.32
2022-09-06T14:36:44.496Z,26.25
2022-09-06T14:41:47.560Z,26.17
2022-09-06T14:46:53.557Z,26.08
2022-09-06T14:51:56.445Z,26.01
2022-09-06T14:56:59.992Z,25.95
2022-09-06T15:02:03.645Z,25.81
2022-09-06T15:07:06.537Z,25.72
2022-09-06T15:12:10.164Z,25.55
2022-09-06T15:17:13.254Z,25.47
2022-09-06T15:22:16.201Z,25.33
2022-09-06T15:27:19.282Z,25.21
2022-09-06T15:32:22.807Z,25.09
2022-09-06T15:37:25.711Z,24.92
2022-09-06T15:42:28.751Z,24.71
2022-09-06T15:47:35.282Z,24.53
2022-09-06T15:52:38.146Z,24.36
2022-09-06T15:57:41.019Z,24.26
2022-09-06T16:02:44.821Z,24.13
2022-09-06T16:07:47.774Z,23.91
2022-09-06T16:12:53.210Z,23.73
2022-09-06T16:17:57.848Z,23.59
2022-09-06T16:23:00.746Z,23.42
2022-09-06T16:28:03.825Z,23.14
2022-09-06T16:33:06.662Z,22.70
2022-09-06T16:38:10.016Z,22.18
2022-09-06T16:43:14.011Z,21.71
2022-09-06T16:48:17.455Z,21.36
2022-09-06T16:53:22.224Z,21.08
2022-09-06T16:58:25.469Z,20.90
2022-09-06T17:03:28.562Z,20.68
2022-09-06T17:08:36.517Z,20.45
2022-09-06T17:13:40.177Z,20.34
2022-09-06T17:18:43.697Z,20.24
2022-09-06T17:23:46.626Z,20.15
2022-09-06T17:28:50.604Z,20.09
2022-09-06T17:33:54.179Z,20.04
2022-09-06T17:39:10.524Z,19.94
2022-09-06T17:44:17.220Z,19.85
2022-09-06T17:49:20.320Z,19.78
2022-09-06T17:54:23.516Z,19.74
2022-09-06T17:59:26.332Z,19.71
2022-09-06T18:04:29.290Z,19.66
2022-09-06T18:09:32.310Z,19.58
2022-09-06T18:14:35.655Z,19.52
2022-09-06T18:19:38.665Z,19.46
2022-09-06T18:24:41.518Z,19.41
2022-09-06T18:29:44.306Z,19.36
2022-09-06T18:34:47.453Z,19.37
2022-09-06T18:39:50.463Z,19.36
2022-09-06T18:44:54.530Z,19.31
2022-09-06T18:49:57.501Z,19.23
2022-09-06T18:55:00.413Z,19.17
2022-09-06T19:00:04.402Z,19.12
2022-09-06T19:05:08.429Z,19.11
2022-09-06T19:10:11.368Z,19.05
2022-09-06T19:15:15.149Z,19.06
2022-09-06T19:20:21.846Z,19.03
2022-09-06T19:25:25.184Z,19.06
2022-09-06T19:30:28.017Z,19.04
2022-09-06T19:35:30.877Z,18.98
2022-09-06T19:40:33.754Z,18.94
2022-09-06T19:45:38.692Z,18.88
2022-09-06T19:50:41.850Z,18.78
2022-09-06T19:55:44.689Z,18.70
2022-09-06T20:00:47.720Z,18.61
2022-09-06T20:05:58.543Z,18.54
2022-09-06T20:11:04.022Z,18.48
2022-09-06T20:16:09.947Z,18.39
2022-09-06T20:21:17.827Z,18.33
2022-09-06T20:26:24.011Z,18.23
2022-09-06T20:31:29.045Z,18.12
2022-09-06T20:36:35.050Z,18.07
2022-09-06T20:41:37.867Z,18.01
2022-09-06T20:46:40.911Z,17.90
2022-09-06T20:51:43.944Z,17.82
2022-09-06T20:56:46.884Z,17.77
2022-09-06T21:01:49.780Z,17.70
2022-09-06T21:06:52.720Z,17.61
2022-09-06T21:11:55.599Z,17.54
2022-09-06T21:16:59.709Z,17.49
2022-09-06T21:22:02.693Z,17.48
2022-09-06T21:27:07.866Z,17.37
2022-09-06T21:32:10.619Z,17.32
2022-09-06T21:37:14.093Z,17.21
2022-09-06T21:42:18.643Z,17.12
2022-09-06T21:47:21.649Z,17.06
2022-09-06T21:52:24.680Z,16.96
2022-09-06T21:57:27.549Z,16.93
2022-09-06T22:02:30.411Z,16.89
2022-09-06T22:07:35.501Z,16.86
2022-09-06T22:12:38.687Z,16.83
2022-09-06T22:17:41.749Z,16.77
2022-09-06T22:22:48.317Z,16.75
2022-09-06T22:27:51.331Z,16.72
2022-09-06T22:32:54.698Z,16.72
2022-09-06T22:37:57.700Z,16.68
2022-09-06T22:43:00.462Z,16.57
2022-09-06T22:48:03.807Z,16.51
2022-09-06T22:53:07.311Z,16.48
2022-09-06T22:58:10.158Z,16.48
2022-09-06T23:03:13.090Z,16.47
2022-09-06T23:08:16.557Z,16.43
2022-09-06T23:13:19.670Z,16.36
2022-09-06T23:18:23.128Z,16.27
2022-09-06T23:23:26.130Z,16.20
2022-09-06T23:28:29.159Z,16.08
2022-09-06T23:33:35.076Z,16.03
2022-09-06T23:38:40.648Z,16.02
2022-09-06T23:43:44.372Z,15.99
2022-09-06T23:48:47.493Z,15.96
2022-09-06T23:53:50.595Z,15.92
2022-09-06T23:58:53.632Z,15.92
